Time;durP1;ratioP1;P1;durP2;ratioP2;P2;SDS_P1;SDS_P2;PMS_P1;PMS_P2;Temp;Humidity;BMP_temperature;BMP_pressure;BME280_temperature;BME280_humidity;BME280_pressure;Samples;Min_cycle;Max_cycle;Signal;HPM_P1;HPM_P2
2021/01/28 00:00:39;;;;;;;20.55;13.23;;;2.00;99.90;;;;;;5049019;28;20037;-73
2021/01/28 00:03:06;;;;;;;23.00;13.85;;;2.10;99.90;;;;;;5031712;28;20037;-72
2021/01/28 00:05:34;;;;;;;21.70;14.43;;;2.10;99.90;;;;;;5034443;28;20029;-72
2021/01/28 00:08:01;;;;;;;24.98;15.02;;;2.00;99.90;;;;;;5027820;28;20033;-73
2021/01/28 00:10:29;;;;;;;20.40;12.50;;;2.00;99.90;;;;;;5039664;28;20041;-71
2021/01/28 00:12:55;;;;;;;22.05;13.57;;;2.00;99.90;;;;;;5031963;28;20033;-71
2021/01/28 00:15:25;;;;;;;20.42;13.43;;;2.00;99.90;;;;;;5036065;28;20074;-71
2021/01/28 00:17:51;;;;;;;22.30;13.82;;;2.00;99.90;;;;;;5035933;28;20041;-71
2021/01/28 00:20:25;;;;;;;21.20;13.18;;;2.00;99.90;;;;;;5033171;28;20181;-72
2021/01/28 00:22:51;;;;;;;21.80;14.50;;;2.00;99.90;;;;;;5045770;28;20531;-71
2021/01/28 00:25:19;;;;;;;20.85;13.73;;;2.00;99.90;;;;;;5034036;28;20037;-71
2021/01/28 00:27:46;;;;;;;22.70;14.35;;;2.00;99.90;;;;;;5033892;28;20025;-70
2021/01/28 00:30:20;;;;;;;26.27;15.25;;;2.10;99.90;;;;;;5048181;28;20033;-71
2021/01/28 00:32:47;;;;;;;26.25;16.20;;;2.10;99.90;;;;;;5030619;28;20037;-72
2021/01/28 00:35:21;;;;;;;23.92;14.18;;;2.10;99.90;;;;;;5029381;28;20029;-72
2021/01/28 00:37:47;;;;;;;23.08;14.73;;;2.10;99.90;;;;;;5032613;28;20128;-72
2021/01/28 00:40:13;;;;;;;23.73;14.45;;;2.10;99.90;;;;;;5034813;28;20028;-72
2021/01/28 00:42:39;;;;;;;23.25;15.13;;;2.10;99.90;;;;;;5035659;28;20688;-71
2021/01/28 00:45:06;;;;;;;22.27;14.02;;;2.10;99.90;;;;;;5033005;28;20092;-72
2021/01/28 00:47:32;;;;;;;25.55;15.32;;;2.10;99.90;;;;;;5030916;28;20148;-71
2021/01/28 00:49:57;;;;;;;25.20;15.35;;;2.10;99.90;;;;;;5046721;28;20098;-72
2021/01/28 00:52:23;;;;;;;25.02;15.57;;;2.10;99.90;;;;;;5051073;28;20130;-72
2021/01/28 00:54:49;;;;;;;25.58;15.77;;;2.10;99.90;;;;;;5030496;28;20625;-71
2021/01/28 00:57:19;;;;;;;27.80;15.82;;;2.10;99.90;;;;;;5048127;28;20120;-72
2021/01/28 00:59:44;;;;;;;26.05;15.48;;;2.20;99.90;;;;;;5048010;28;20052;-73
2021/01/28 01:02:10;;;;;;;26.33;15.80;;;2.20;99.90;;;;;;5035120;28;20028;-72
2021/01/28 01:04:36;;;;;;;26.13;15.68;;;2.20;99.90;;;;;;5048594;28;20091;-72
2021/01/28 01:07:02;;;;;;;23.05;15.05;;;2.20;99.90;;;;;;5029525;28;20030;-72
2021/01/28 01:09:27;;;;;;;26.77;16.23;;;2.30;99.90;;;;;;5032001;28;20037;-73
2021/01/28 01:11:55;;;;;;;26.98;16.23;;;2.40;99.90;;;;;;5044858;28;20030;-72
2021/01/28 01:14:21;;;;;;;29.15;17.75;;;2.40;99.90;;;;;;5032011;28;20032;-72
2021/01/28 01:16:47;;;;;;;25.55;15.90;;;2.40;99.90;;;;;;5029637;28;20090;-72
2021/01/28 01:19:20;;;;;;;28.58;16.90;;;2.40;99.90;;;;;;5051923;28;20886;-78
2021/01/28 01:22:09;;;;;;;29.02;17.17;;;2.50;99.90;;;;;;5043373;28;20051;-77
2021/01/28 01:24:36;;;;;;;29.88;17.58;;;2.50;99.90;;;;;;5045676;28;20135;-72
2021/01/28 01:27:02;;;;;;;43.25;20.80;;;2.70;99.90;;;;;;5029617;28;20148;-70
2021/01/28 01:29:28;;;;;;;33.00;18.23;;;2.60;99.90;;;;;;5047086;28;20040;-72
2021/01/28 01:32:17;;;;;;;28.85;16.92;;;2.60;99.90;;;;;;5046391;28;20139;-72
2021/01/28 01:35:02;;;;;;;31.27;18.08;;;2.60;99.90;;;;;;5034591;28;20091;-72
2021/01/28 01:37:29;;;;;;;29.40;17.35;;;2.60;99.90;;;;;;5029222;28;20056;-72
2021/01/28 01:39:58;;;;;;;30.80;17.20;;;2.60;99.90;;;;;;5033936;28;20116;-72
2021/01/28 01:42:28;;;;;;;29.02;17.08;;;2.70;99.90;;;;;;5046751;28;20120;-72
2021/01/28 01:44:56;;;;;;;27.95;16.25;;;2.70;99.90;;;;;;5040360;28;20068;-72
2021/01/28 01:47:30;;;;;;;29.60;17.48;;;2.70;99.90;;;;;;5048052;28;20128;-73
2021/01/28 01:49:57;;;;;;;29.83;17.33;;;2.70;99.90;;;;;;5044169;28;20025;-72
2021/01/28 01:52:30;;;;;;;27.45;16.23;;;2.70;99.90;;;;;;5048252;28;20033;-72
2021/01/28 01:55:01;;;;;;;28.63;17.23;;;2.80;99.90;;;;;;5031133;28;20035;-73
2021/01/28 01:57:34;;;;;;;29.13;16.58;;;2.80;99.90;;;;;;5047818;28;20461;-73
2021/01/28 02:00:16;;;;;;;28.98;17.23;;;2.80;99.90;;;;;;5030600;28;20117;-72
2021/01/28 02:03:07;;;;;;;28.50;16.02;;;2.90;99.90;;;;;;5045839;28;20057;-72
2021/01/28 02:06:25;;;;;;;30.08;17.05;;;2.90;99.90;;;;;;5013432;28;20084;-72
2021/01/28 02:09:11;;;;;;;29.65;15.80;;;2.90;99.90;;;;;;5012854;28;20600;-72
2021/01/28 02:12:04;;;;;;;30.95;16.63;;;2.80;99.90;;;;;;5050677;28;20452;-72
2021/01/28 02:14:52;;;;;;;28.35;16.42;;;2.80;99.90;;;;;;5048328;28;20408;-72
2021/01/28 02:17:25;;;;;;;28.17;16.88;;;2.80;99.90;;;;;;5049988;28;20682;-72
2021/01/28 02:20:27;;;;;;;29.13;16.35;;;2.90;99.90;;;;;;5047992;28;20138;-72
2021/01/28 02:23:14;;;;;;;30.05;17.75;;;2.90;99.90;;;;;;5050356;28;20033;-72
2021/01/28 02:25:44;;;;;;;29.83;16.98;;;3.00;99.90;;;;;;5043938;28;20037;-73
2021/01/28 02:28:13;;;;;;;30.33;16.83;;;3.00;99.90;;;;;;5049810;28;20047;-73
2021/01/28 02:30:51;;;;;;;33.95;17.75;;;3.00;99.90;;;;;;5034740;28;20033;-73
2021/01/28 02:33:58;;;;;;;29.87;17.20;;;2.90;99.90;;;;;;5049354;28;20029;-73
2021/01/28 02:36:47;;;;;;;28.15;16.10;;;3.00;99.90;;;;;;5045479;28;20144;-72
2021/01/28 02:39:33;;;;;;;29.63;17.40;;;3.00;99.90;;;;;;5041800;28;20074;-72
2021/01/28 02:42:31;;;;;;;30.27;17.75;;;3.00;99.90;;;;;;5044914;28;20484;-72
2021/01/28 02:45:34;;;;;;;29.67;17.33;;;3.00;99.90;;;;;;5032733;28;20786;-72
2021/01/28 02:48:08;;;;;;;28.30;16.63;;;2.90;99.90;;;;;;5049124;28;20025;-73
2021/01/28 02:50:39;;;;;;;29.75;17.17;;;3.00;99.90;;;;;;5049231;28;20029;-73
2021/01/28 02:53:07;;;;;;;28.67;16.95;;;3.00;99.90;;;;;;5049093;28;20036;-72
2021/01/28 02:55:35;;;;;;;28.17;16.33;;;3.00;99.90;;;;;;5048925;28;20098;-72
2021/01/28 02:58:03;;;;;;;31.80;17.33;;;3.00;99.90;;;;;;5027720;28;20459;-72
2021/01/28 03:00:39;;;;;;;29.58;17.13;;;2.90;99.90;;;;;;5043848;28;20041;-74
2021/01/28 03:03:08;;;;;;;31.83;17.60;;;2.90;99.90;;;;;;5046576;28;20120;-72
2021/01/28 03:06:02;;;;;;;28.48;16.58;;;2.90;99.90;;;;;;5029795;28;20160;-72
2021/01/28 03:08:29;;;;;;;31.08;17.33;;;2.90;99.90;;;;;;5043551;28;20412;-72
2021/01/28 03:11:24;;;;;;;31.05;17.90;;;3.00;99.90;;;;;;5047033;28;20141;-71
2021/01/28 03:13:52;;;;;;;39.58;17.65;;;3.00;99.90;;;;;;5049517;28;20037;-72
2021/01/28 03:16:27;;;;;;;32.25;16.88;;;3.00;99.90;;;;;;5029219;28;20040;-72
2021/01/28 03:19:06;;;;;;;31.20;18.10;;;3.00;99.90;;;;;;5044057;28;20047;-71
2021/01/28 03:21:32;;;;;;;33.10;17.15;;;3.10;99.90;;;;;;5029678;28;20036;-72
2021/01/28 03:24:17;;;;;;;26.15;16.08;;;3.00;99.90;;;;;;5033594;28;20079;-72
2021/01/28 03:26:47;;;;;;;30.90;17.33;;;3.00;99.90;;;;;;5013904;28;20803;-72
2021/01/28 03:29:13;;;;;;;29.80;17.30;;;3.00;99.90;;;;;;5044427;28;20032;-72
2021/01/28 03:31:41;;;;;;;30.90;17.70;;;3.10;99.90;;;;;;5031361;28;20068;-72
2021/01/28 03:34:12;;;;;;;34.10;17.83;;;3.10;99.90;;;;;;5046421;28;20476;-72
2021/01/28 03:36:38;;;;;;;29.02;16.60;;;3.20;99.90;;;;;;5045172;28;20033;-71
2021/01/28 03:39:07;;;;;;;30.83;17.33;;;3.20;99.90;;;;;;5030494;28;20036;-72
2021/01/28 03:41:33;;;;;;;33.15;16.98;;;3.20;99.90;;;;;;5049183;28;20033;-72
2021/01/28 03:43:59;;;;;;;32.80;17.90;;;3.20;99.90;;;;;;5042082;28;20864;-72
2021/01/28 03:46:25;;;;;;;34.45;17.10;;;3.20;99.90;;;;;;5046045;28;20033;-72
2021/01/28 03:48:53;;;;;;;30.38;17.23;;;3.20;99.90;;;;;;5046311;28;20037;-72
2021/01/28 03:51:28;;;;;;;30.13;16.65;;;3.30;99.90;;;;;;5033723;28;20029;-71
2021/01/28 03:54:13;;;;;;;30.83;16.52;;;3.40;99.90;;;;;;5031638;28;21015;-72
2021/01/28 03:56:45;;;;;;;33.45;17.67;;;3.50;99.90;;;;;;5030892;28;20106;-72
2021/01/28 03:59:12;;;;;;;32.22;16.88;;;3.60;99.90;;;;;;5030976;28;20413;-72
2021/01/28 04:02:01;;;;;;;32.60;17.33;;;3.60;99.90;;;;;;5031736;28;20041;-72
2021/01/28 04:04:46;;;;;;;31.75;17.55;;;3.70;99.90;;;;;;5033703;28;20091;-72
2021/01/28 04:07:30;;;;;;;33.80;18.45;;;3.80;99.90;;;;;;5032834;28;20044;-72
2021/01/28 04:09:56;;;;;;;32.10;17.45;;;3.90;99.90;;;;;;5045114;28;20033;-72
2021/01/28 04:12:25;;;;;;;33.22;17.90;;;3.90;99.90;;;;;;5050573;28;20571;-71
2021/01/28 04:15:04;;;;;;;35.40;17.48;;;4.00;99.90;;;;;;5048640;28;20986;-72
2021/01/28 04:17:32;;;;;;;34.22;17.20;;;4.00;99.90;;;;;;5048309;28;20039;-72
2021/01/28 04:20:23;;;;;;;32.65;17.08;;;3.90;99.90;;;;;;5048019;28;20060;-72
2021/01/28 04:22:50;;;;;;;38.22;17.70;;;3.90;99.90;;;;;;5029294;28;20029;-72
2021/01/28 04:25:17;;;;;;;34.75;18.50;;;4.00;99.90;;;;;;5034765;28;20072;-72
2021/01/28 04:27:45;;;;;;;32.28;18.50;;;4.00;99.90;;;;;;5048368;28;20060;-72
2021/01/28 04:30:40;;;;;;;33.97;17.80;;;4.10;99.90;;;;;;5038414;28;20435;-72
2021/01/28 04:33:06;;;;;;;34.15;17.85;;;4.00;99.90;;;;;;5046976;28;20056;-72
2021/01/28 04:35:51;;;;;;;34.10;17.85;;;4.00;99.90;;;;;;5034803;28;20773;-71
2021/01/28 04:38:19;;;;;;;36.00;18.25;;;4.10;99.90;;;;;;5048022;28;20211;-72
2021/01/28 04:41:02;;;;;;;34.60;18.25;;;4.10;99.90;;;;;;5045642;28;20037;-71
2021/01/28 04:43:31;;;;;;;34.63;18.75;;;4.10;99.90;;;;;;5046833;28;20041;-72
2021/01/28 04:46:39;;;;;;;36.22;18.52;;;4.10;99.90;;;;;;5045609;28;20032;-72
2021/01/28 04:49:28;;;;;;;37.40;18.95;;;4.20;99.90;;;;;;5028185;28;20219;-72
2021/01/28 04:52:40;;;;;;;38.72;19.98;;;4.10;99.90;;;;;;4994328;28;20046;-71
2021/01/28 04:55:42;;;;;;;37.10;18.63;;;4.10;99.90;;;;;;5022832;28;20041;-72
2021/01/28 04:58:10;;;;;;;39.40;20.05;;;4.10;99.90;;;;;;5031350;28;20083;-72
2021/01/28 05:00:50;;;;;;;37.05;18.33;;;4.10;99.90;;;;;;5044017;28;20136;-72
2021/01/28 05:03:28;;;;;;;38.05;19.23;;;4.10;99.90;;;;;;5048570;28;20433;-72
2021/01/28 05:06:17;;;;;;;38.58;20.17;;;4.20;99.90;;;;;;5038696;28;20119;-72
2021/01/28 05:09:06;;;;;;;40.97;20.48;;;4.20;99.90;;;;;;5033158;28;20045;-72
2021/01/28 05:11:57;;;;;;;40.10;20.05;;;4.30;99.90;;;;;;5027312;28;20068;-72
2021/01/28 05:14:42;;;;;;;41.20;20.92;;;4.30;99.90;;;;;;5033415;28;20106;-71
2021/01/28 05:17:29;;;;;;;44.28;21.83;;;4.20;99.90;;;;;;5033165;28;20051;-71
2021/01/28 05:20:19;;;;;;;45.15;22.15;;;4.40;99.90;;;;;;5027380;28;20043;-71
2021/01/28 05:23:45;;;;;;;42.78;21.17;;;4.40;99.90;;;;;;5032387;28;20047;-71
2021/01/28 05:26:39;;;;;;;47.15;22.90;;;4.40;99.90;;;;;;5031625;28;20048;-71
2021/01/28 05:29:19;;;;;;;44.53;22.77;;;4.40;99.90;;;;;;5031809;28;20778;-72
2021/01/28 05:32:31;;;;;;;46.35;22.38;;;4.40;99.90;;;;;;5030462;28;20048;-71
2021/01/28 05:35:20;;;;;;;35.55;17.05;;;4.40;99.90;;;;;;5025705;28;20041;-72
2021/01/28 05:38:23;;;;;;;42.55;20.58;;;4.50;99.90;;;;;;5048204;28;20033;-72
2021/01/28 05:41:36;;;;;;;42.50;21.45;;;4.50;99.90;;;;;;5024371;28;20052;-71
2021/01/28 05:44:13;;;;;;;45.70;21.90;;;4.40;99.90;;;;;;5031588;28;20033;-72
2021/01/28 05:46:39;;;;;;;42.83;21.42;;;4.50;99.90;;;;;;5048373;28;20595;-72
2021/01/28 05:49:35;;;;;;;44.25;21.85;;;4.50;99.90;;;;;;5047221;28;20083;-72
2021/01/28 05:52:24;;;;;;;44.47;21.85;;;4.50;99.90;;;;;;5031595;28;20280;-72
2021/01/28 05:55:15;;;;;;;43.15;21.45;;;4.50;99.90;;;;;;5047854;28;20066;-71
2021/01/28 05:58:16;;;;;;;47.67;21.48;;;4.60;99.90;;;;;;5036692;28;20534;-71
2021/01/28 06:01:10;;;;;;;43.65;21.52;;;4.50;99.90;;;;;;5055657;28;20044;-72
2021/01/28 06:04:01;;;;;;;40.63;20.27;;;4.50;99.90;;;;;;5056936;28;20847;-72
2021/01/28 06:06:51;;;;;;;44.60;20.63;;;4.50;99.90;;;;;;5047692;28;20039;-72
2021/01/28 06:10:08;;;;;;;42.55;20.67;;;4.60;99.90;;;;;;5031221;28;20128;-71
2021/01/28 06:13:19;;;;;;;41.95;20.67;;;4.60;99.90;;;;;;5042721;28;20397;-71
2021/01/28 06:16:04;;;;;;;42.83;20.80;;;4.50;99.90;;;;;;5060944;28;20056;-71
2021/01/28 06:19:14;;;;;;;44.35;20.95;;;4.50;99.90;;;;;;5049202;28;20039;-71
2021/01/28 06:22:02;;;;;;;41.83;20.25;;;4.60;99.90;;;;;;5060934;28;20125;-72
2021/01/28 06:25:06;;;;;;;41.38;20.67;;;4.60;99.90;;;;;;5037968;28;20113;-72
2021/01/28 06:28:04;;;;;;;41.88;19.90;;;4.50;99.90;;;;;;5049361;28;20445;-72
2021/01/28 06:30:56;;;;;;;43.15;20.85;;;4.60;99.90;;;;;;5048268;28;20361;-71
2021/01/28 06:33:54;;;;;;;42.50;20.38;;;4.60;99.90;;;;;;5032625;28;20051;-72
2021/01/28 06:37:00;;;;;;;44.25;21.98;;;4.60;99.90;;;;;;5040097;28;20043;-72
2021/01/28 06:39:45;;;;;;;40.50;19.55;;;4.60;99.90;;;;;;5050849;28;20060;-72
2021/01/28 06:42:43;;;;;;;43.15;21.75;;;4.60;99.90;;;;;;5030610;28;20044;-74
2021/01/28 06:46:08;;;;;;;46.65;22.33;;;4.60;99.90;;;;;;5025539;28;20073;-72
2021/01/28 06:48:45;;;;;;;46.20;20.92;;;4.60;99.90;;;;;;5018925;28;20043;-72
2021/01/28 06:51:46;;;;;;;44.88;21.50;;;4.60;99.90;;;;;;5049235;28;20380;-72
2021/01/28 06:54:22;;;;;;;47.15;22.83;;;4.60;99.90;;;;;;5041501;28;20988;-72
2021/01/28 06:57:17;;;;;;;47.63;22.10;;;4.70;99.90;;;;;;5036438;28;20042;-72
2021/01/28 07:00:34;;;;;;;48.17;21.85;;;4.70;99.90;;;;;;5034167;28;20048;-72
2021/01/28 07:03:15;;;;;;;48.78;21.27;;;4.60;99.90;;;;;;5052997;28;20813;-72
2021/01/28 07:05:45;;;;;;;42.90;20.35;;;4.60;99.90;;;;;;5031914;28;20029;-72
2021/01/28 07:08:21;;;;;;;49.25;22.48;;;4.60;99.90;;;;;;5039873;28;20108;-74
2021/01/28 07:11:33;;;;;;;47.92;21.65;;;4.70;99.90;;;;;;5023029;28;20067;-71
2021/01/28 07:14:19;;;;;;;48.20;21.13;;;4.60;99.90;;;;;;5021184;28;20095;-72
2021/01/28 07:17:03;;;;;;;56.03;23.20;;;4.60;99.90;;;;;;5041779;28;20068;-72
2021/01/28 07:19:36;;;;;;;58.38;23.40;;;4.50;99.90;;;;;;5051975;28;20068;-72
2021/01/28 07:22:26;;;;;;;53.92;22.90;;;4.50;99.90;;;;;;5058037;28;20037;-72
2021/01/28 07:24:54;;;;;;;57.00;22.73;;;4.50;99.90;;;;;;5058106;28;20029;-72
2021/01/28 07:27:22;;;;;;;49.47;20.45;;;4.50;99.90;;;;;;5037291;28;20071;-72
2021/01/28 07:29:48;;;;;;;48.00;20.55;;;4.40;99.90;;;;;;5037336;28;20692;-72
2021/01/28 07:32:26;;;;;;;28.98;13.27;;;4.30;99.90;;;;;;5060369;28;20086;-72
2021/01/28 07:35:26;;;;;;;23.02;11.30;;;4.20;99.90;;;;;;5029582;28;20083;-72
2021/01/28 07:38:29;;;;;;;15.95;8.13;;;4.00;99.90;;;;;;5063605;28;20072;-69
2021/01/28 07:41:18;;;;;;;16.58;7.57;;;4.00;99.90;;;;;;5034571;28;20063;-71
2021/01/28 07:44:24;;;;;;;15.77;7.32;;;4.00;99.90;;;;;;4978152;28;20053;-70
2021/01/28 07:46:53;;;;;;;15.15;7.20;;;4.00;99.90;;;;;;4975149;28;20026;-70
2021/01/28 07:49:33;;;;;;;14.77;7.03;;;3.90;99.90;;;;;;4997989;28;20036;-71
2021/01/28 07:52:16;;;;;;;13.25;6.50;;;3.80;99.90;;;;;;5061244;28;20029;-73
2021/01/28 07:54:47;;;;;;;12.73;6.55;;;3.70;99.90;;;;;;5046779;28;20086;-74
2021/01/28 07:57:43;;;;;;;11.02;6.15;;;3.70;99.90;;;;;;5035848;28;20986;-75
2021/01/28 08:00:20;;;;;;;15.85;6.10;;;3.80;99.90;;;;;;5055645;28;20047;-74
2021/01/28 08:03:02;;;;;;;18.73;9.27;;;3.90;99.90;;;;;;5040057;28;20625;-75
2021/01/28 08:05:28;;;;;;;13.48;6.80;;;3.90;99.90;;;;;;5044108;28;20111;-75
2021/01/28 08:08:09;;;;;;;16.70;7.90;;;3.90;99.90;;;;;;5048814;28;20446;-75
2021/01/28 08:10:37;;;;;;;18.10;8.10;;;4.00;99.90;;;;;;5053466;28;20873;-75
2021/01/28 08:13:17;;;;;;;18.35;8.13;;;4.00;99.90;;;;;;5043547;28;20035;-76
2021/01/28 08:15:47;;;;;;;18.05;9.32;;;4.10;99.90;;;;;;5045608;28;20039;-77
2021/01/28 08:18:18;;;;;;;18.05;8.25;;;4.10;99.90;;;;;;5038214;28;20040;-77
2021/01/28 08:20:44;;;;;;;18.00;9.30;;;4.20;99.90;;;;;;5045961;28;20037;-77
2021/01/28 08:23:23;;;;;;;22.05;9.18;;;4.20;99.90;;;;;;5048348;28;20032;-78
2021/01/28 08:25:53;;;;;;;18.60;9.30;;;4.30;99.90;;;;;;5070429;28;20036;-77
2021/01/28 08:28:19;;;;;;;17.05;8.52;;;4.40;99.90;;;;;;5062826;28;20032;-77
2021/01/28 08:30:46;;;;;;;18.65;9.48;;;4.30;99.90;;;;;;5041635;28;20170;-77
2021/01/28 08:33:23;;;;;;;18.13;9.10;;;4.30;99.90;;;;;;5039455;28;20439;-79
2021/01/28 08:35:56;;;;;;;17.38;8.77;;;4.30;99.90;;;;;;5034475;28;20136;-76
2021/01/28 08:38:29;;;;;;;19.73;9.30;;;4.40;99.90;;;;;;5041032;28;20024;-76
2021/01/28 08:41:13;;;;;;;23.38;10.80;;;4.40;99.90;;;;;;5039738;28;20109;-77
2021/01/28 08:43:39;;;;;;;18.13;9.23;;;4.30;99.90;;;;;;5042762;28;20135;-77
2021/01/28 08:46:12;;;;;;;21.35;10.45;;;4.30;99.90;;;;;;5064833;28;20029;-77
2021/01/28 08:48:40;;;;;;;26.48;11.02;;;4.40;99.90;;;;;;5036922;28;20036;-77
2021/01/28 08:51:14;;;;;;;23.52;10.93;;;4.40;99.90;;;;;;5053678;28;20075;-77
2021/01/28 08:53:45;;;;;;;25.23;10.52;;;4.20;99.90;;;;;;5056107;28;20148;-77
2021/01/28 08:56:19;;;;;;;24.63;11.55;;;4.30;99.90;;;;;;5038368;28;20738;-77
2021/01/28 08:58:45;;;;;;;20.35;10.32;;;4.20;99.90;;;;;;5059595;28;20025;-77
2021/01/28 09:01:13;;;;;;;25.42;12.18;;;4.30;99.90;;;;;;5041369;28;20032;-76
2021/01/28 09:03:52;;;;;;;28.08;15.10;;;4.30;99.90;;;;;;5048860;28;20025;-76
2021/01/28 09:06:18;;;;;;;31.35;17.92;;;4.30;99.90;;;;;;5058290;28;20032;-76
2021/01/28 09:08:44;;;;;;;29.25;17.08;;;4.30;99.90;;;;;;5069595;28;20039;-74
2021/01/28 09:11:28;;;;;;;20.70;10.70;;;4.50;99.90;;;;;;5046651;28;20039;-77
2021/01/28 09:14:23;;;;;;;26.40;11.80;;;4.60;99.90;;;;;;5029639;28;20041;-76
2021/01/28 09:16:57;;;;;;;20.73;10.57;;;4.60;99.90;;;;;;5028854;28;20782;-77
2021/01/28 09:19:23;;;;;;;24.15;11.80;;;4.50;99.90;;;;;;5028774;28;20057;-76
2021/01/28 09:21:55;;;;;;;22.27;11.18;;;4.50;99.90;;;;;;5038292;28;20079;-76
2021/01/28 09:24:35;;;;;;;19.83;10.65;;;4.70;99.90;;;;;;5040142;28;20040;-77
2021/01/28 09:27:15;;;;;;;21.80;11.10;;;4.70;99.90;;;;;;5033247;28;20044;-76
2021/01/28 09:29:42;;;;;;;21.02;11.00;;;4.60;99.90;;;;;;5055915;28;20044;-77
2021/01/28 09:32:12;;;;;;;24.20;11.50;;;4.60;99.90;;;;;;5048947;28;20115;-75
2021/01/28 09:34:38;;;;;;;22.98;10.68;;;4.70;99.90;;;;;;5064220;28;20174;-80
2021/01/28 09:37:16;;;;;;;20.25;10.65;;;4.60;99.90;;;;;;5042865;28;20036;-80
2021/01/28 09:39:45;;;;;;;19.15;10.65;;;4.60;99.90;;;;;;5048795;28;20928;-78
2021/01/28 09:42:25;;;;;;;25.63;11.63;;;4.60;99.90;;;;;;5014847;28;20035;-77
2021/01/28 09:44:52;;;;;;;23.27;11.48;;;4.70;99.90;;;;;;5061246;28;20044;-79
2021/01/28 09:47:23;;;;;;;22.20;10.60;;;4.80;99.90;;;;;;5044645;28;20048;-78
2021/01/28 09:49:58;;;;;;;21.33;11.40;;;4.80;99.90;;;;;;5040813;28;20063;-78
2021/01/28 09:52:29;;;;;;;21.77;10.68;;;4.90;99.90;;;;;;5040788;28;20044;-70
2021/01/28 09:55:01;;;;;;;21.95;11.32;;;4.90;99.90;;;;;;5063981;28;20172;-76
2021/01/28 09:57:27;;;;;;;20.67;10.65;;;5.00;99.90;;;;;;5040863;28;20060;-76
2021/01/28 09:59:55;;;;;;;21.35;10.00;;;5.00;99.90;;;;;;5043306;28;20024;-77
2021/01/28 10:02:33;;;;;;;24.48;12.63;;;5.00;99.90;;;;;;5048755;28;20033;-75
2021/01/28 10:04:58;;;;;;;21.08;11.30;;;5.10;99.90;;;;;;5044519;28;20033;-75
2021/01/28 10:07:24;;;;;;;21.80;10.48;;;5.20;99.90;;;;;;5041680;28;20040;-75
2021/01/28 10:09:49;;;;;;;24.02;12.27;;;5.30;99.90;;;;;;5035476;28;20112;-74
2021/01/28 10:12:17;;;;;;;22.75;11.23;;;5.30;99.90;;;;;;5048308;28;20300;-77
2021/01/28 10:14:43;;;;;;;20.77;10.75;;;5.50;99.90;;;;;;5043881;28;20047;-76
2021/01/28 10:17:12;;;;;;;22.10;11.07;;;5.50;99.90;;;;;;5043072;28;20036;-77
2021/01/28 10:19:40;;;;;;;22.63;11.13;;;5.60;99.90;;;;;;5060862;28;20032;-74
2021/01/28 10:22:07;;;;;;;23.70;11.70;;;5.60;99.90;;;;;;5050263;28;20040;-77
2021/01/28 10:24:33;;;;;;;22.50;10.95;;;5.40;99.90;;;;;;5037575;28;20036;-77
2021/01/28 10:26:58;;;;;;;23.55;11.27;;;5.30;99.90;;;;;;5055918;28;20666;-79
2021/01/28 10:29:24;;;;;;;23.90;12.07;;;5.10;99.90;;;;;;5042480;28;20136;-77
2021/01/28 10:31:50;;;;;;;28.98;11.00;;;5.00;99.90;;;;;;5050523;28;20233;-77
2021/01/28 10:34:15;;;;;;;21.73;11.02;;;4.90;99.90;;;;;;5045294;28;20040;-77
2021/01/28 10:36:41;;;;;;;25.73;12.88;;;4.80;99.90;;;;;;5037874;28;20091;-74
2021/01/28 10:39:07;;;;;;;20.88;10.30;;;4.80;99.90;;;;;;5057470;28;20033;-73
2021/01/28 10:41:33;;;;;;;24.38;11.65;;;4.70;99.90;;;;;;5041074;28;20087;-78
2021/01/28 10:43:59;;;;;;;22.50;11.35;;;4.70;99.90;;;;;;5050492;28;20036;-77
2021/01/28 10:46:25;;;;;;;23.48;11.80;;;4.70;99.90;;;;;;5043304;28;20059;-77
2021/01/28 10:48:50;;;;;;;24.00;11.25;;;4.70;99.90;;;;;;5045977;28;20362;-77
2021/01/28 10:51:17;;;;;;;24.27;11.90;;;4.80;99.90;;;;;;5059951;28;20369;-77
2021/01/28 10:53:42;;;;;;;22.67;11.23;;;4.90;99.90;;;;;;5026062;28;20037;-77
2021/01/28 10:56:08;;;;;;;22.83;11.50;;;5.20;99.90;;;;;;5065708;28;20032;-72
2021/01/28 10:58:34;;;;;;;25.88;13.15;;;5.30;99.90;;;;;;5051244;28;20028;-78
2021/01/28 11:01:00;;;;;;;19.80;10.52;;;5.20;99.90;;;;;;5035312;28;20033;-76
2021/01/28 11:03:25;;;;;;;20.73;9.93;;;5.50;99.90;;;;;;5034398;28;20032;-76
2021/01/28 11:05:51;;;;;;;25.05;11.25;;;5.60;99.90;;;;;;5060356;28;20589;-76
2021/01/28 11:08:17;;;;;;;19.50;9.98;;;5.40;99.90;;;;;;5038599;28;20032;-76
2021/01/28 11:10:44;;;;;;;22.55;10.88;;;5.40;99.90;;;;;;5053704;28;20041;-76
2021/01/28 11:13:09;;;;;;;18.17;9.77;;;5.30;99.90;;;;;;5046875;28;20054;-76
2021/01/28 11:15:38;;;;;;;20.58;9.25;;;5.30;99.90;;;;;;5066074;28;20040;-76
2021/01/28 11:18:07;;;;;;;18.88;9.27;;;5.20;99.90;;;;;;5063569;28;20048;-77
2021/01/28 11:20:34;;;;;;;22.40;11.30;;;5.10;99.90;;;;;;5060727;28;20058;-77
2021/01/28 11:23:00;;;;;;;19.10;9.77;;;5.20;99.90;;;;;;5051197;28;20108;-78
2021/01/28 11:25:27;;;;;;;17.52;9.18;;;5.30;99.90;;;;;;5056002;28;20309;-78
2021/01/28 11:27:53;;;;;;;22.17;9.13;;;5.40;99.90;;;;;;5035801;28;20040;-78
2021/01/28 11:30:22;;;;;;;18.77;9.70;;;5.40;99.90;;;;;;5054789;28;20028;-77
2021/01/28 11:32:48;;;;;;;37.08;17.52;;;5.20;99.90;;;;;;5060871;28;20056;-75
2021/01/28 11:35:15;;;;;;;22.73;12.00;;;5.40;99.90;;;;;;5045435;28;20032;-75
2021/01/28 11:37:45;;;;;;;21.35;11.32;;;5.30;99.90;;;;;;5044062;28;20045;-76
2021/01/28 11:40:12;;;;;;;20.10;10.60;;;5.40;99.90;;;;;;5056925;28;20591;-75
2021/01/28 11:42:37;;;;;;;33.10;17.17;;;5.40;99.90;;;;;;5069194;28;20047;-76
2021/01/28 11:45:04;;;;;;;18.17;9.70;;;5.50;99.90;;;;;;5062664;28;20036;-75
2021/01/28 11:47:30;;;;;;;22.23;10.07;;;5.40;99.90;;;;;;5040214;28;20115;-75
2021/01/28 11:49:56;;;;;;;24.38;10.38;;;5.30;99.90;;;;;;5051242;28;20059;-78
2021/01/28 11:52:23;;;;;;;22.55;9.48;;;5.20;99.90;;;;;;5052400;28;20131;-78
2021/01/28 11:54:49;;;;;;;27.10;10.25;;;5.30;99.90;;;;;;5039197;28;20103;-76
2021/01/28 11:57:15;;;;;;;27.42;11.40;;;5.10;99.90;;;;;;5066537;28;20040;-76
2021/01/28 11:59:41;;;;;;;24.90;10.93;;;5.20;99.90;;;;;;5041443;28;20036;-76
2021/01/28 12:02:06;;;;;;;31.42;11.75;;;5.20;99.90;;;;;;5053843;28;20056;-76
2021/01/28 12:04:33;;;;;;;21.13;9.27;;;5.10;99.90;;;;;;5040677;28;20039;-76
2021/01/28 12:06:58;;;;;;;22.90;9.45;;;5.20;99.90;;;;;;5033384;28;20094;-76
2021/01/28 12:09:24;;;;;;;21.08;8.93;;;5.00;99.90;;;;;;5028851;28;20484;-75
2021/01/28 12:11:50;;;;;;;15.15;8.10;;;5.10;99.90;;;;;;5050217;28;20032;-78
2021/01/28 12:14:16;;;;;;;20.48;9.35;;;5.20;99.90;;;;;;5048811;28;20144;-76
2021/01/28 12:16:42;;;;;;;20.02;8.75;;;5.30;99.90;;;;;;5040276;28;20075;-77
2021/01/28 12:19:09;;;;;;;35.53;11.23;;;5.30;99.90;;;;;;5039233;28;20033;-76
2021/01/28 12:21:35;;;;;;;18.08;7.70;;;5.30;99.90;;;;;;5054323;28;20497;-78
2021/01/28 12:24:01;;;;;;;21.00;8.80;;;5.20;99.90;;;;;;5047521;28;20036;-78
2021/01/28 12:26:26;;;;;;;37.60;12.02;;;5.20;99.90;;;;;;5045799;28;20111;-79
2021/01/28 12:28:52;;;;;;;36.65;11.75;;;5.10;99.90;;;;;;5043009;28;20029;-76
2021/01/28 12:31:18;;;;;;;54.92;16.77;;;5.20;99.90;;;;;;5042543;28;20036;-75
2021/01/28 12:33:44;;;;;;;25.20;9.82;;;5.10;99.90;;;;;;5048304;28;20025;-75
2021/01/28 12:36:10;;;;;;;16.48;7.97;;;5.00;99.90;;;;;;5036996;28;20751;-76
2021/01/28 12:38:36;;;;;;;20.48;8.60;;;5.00;99.90;;;;;;5038338;28;20094;-78
2021/01/28 12:41:03;;;;;;;15.38;7.90;;;5.10;99.90;;;;;;5036314;28;20033;-76
2021/01/28 12:43:28;;;;;;;13.82;7.47;;;5.20;99.90;;;;;;5028534;28;20060;-75
2021/01/28 12:45:54;;;;;;;13.23;7.35;;;5.10;99.90;;;;;;5058068;28;20144;-76
2021/01/28 12:48:20;;;;;;;14.38;7.45;;;5.00;99.90;;;;;;5072093;28;20108;-77
2021/01/28 12:50:46;;;;;;;21.52;10.23;;;5.10;99.90;;;;;;5047318;28;20574;-80
2021/01/28 12:53:12;;;;;;;17.73;9.48;;;5.00;99.90;;;;;;5049645;28;20041;-80
2021/01/28 12:55:37;;;;;;;17.35;8.50;;;4.90;99.90;;;;;;5045621;28;20032;-80
2021/01/28 12:58:03;;;;;;;16.05;8.70;;;5.00;99.90;;;;;;5066427;28;20755;-76
2021/01/28 13:00:29;;;;;;;11.80;6.85;;;5.00;99.90;;;;;;5033419;28;20056;-81
2021/01/28 13:02:55;;;;;;;15.30;8.20;;;5.00;99.90;;;;;;5056566;28;20530;-80
2021/01/28 13:05:21;;;;;;;11.30;6.75;;;5.00;99.90;;;;;;5052727;28;20056;-79
2021/01/28 13:07:47;;;;;;;17.50;7.82;;;5.00;99.90;;;;;;5055473;28;20060;-80
2021/01/28 13:10:15;;;;;;;20.13;8.82;;;5.10;99.90;;;;;;5047359;28;20572;-80
2021/01/28 13:12:40;;;;;;;15.18;7.30;;;5.30;99.90;;;;;;5036450;28;20025;-80
2021/01/28 13:15:10;;;;;;;11.45;6.15;;;5.10;99.90;;;;;;5027733;28;20033;-80
2021/01/28 13:17:36;;;;;;;23.67;8.70;;;4.60;99.90;;;;;;5043403;28;20394;-80
2021/01/28 13:20:03;;;;;;;15.32;7.03;;;4.70;99.90;;;;;;5050785;28;20037;-80